aviador You're here:

KJLN Decoded Metar

JOPLIN in MO, USA
Report Time2018-07-22 13:53:00
UTC Time2018-07-22 14:08:11
Flight Rules vfr VFR
Wind070° at 06 kt
W.Decomp.*RWY 05: 5.8 kt HW 1.7 kt RCW
RWY 13: 2.6 kt HW 5.4 kt LCW
RWY 36: 2.4 kt HW 5.5 kt RCW
W.Rank070° ranks 27
Current wind is above 070° avg. (5.5)
Visibility9999 m
Phenomena:N/A
Clouds:N/A
Expected CloudBase > 2,000 ft AGL from Temp-Dew spread
CeilingNone
Temp23°C (ISA +10)
Dew Point18°C (74% RH)
QNH1016 hPa
Density Alt2,313 ft
Elevation981 ft
Report Wrong Elevation
Raw Report
KJLN 221353Z 07006KT 10SM CLR 23/18 A3000 RMK AO2 SLP147
T02330183=

Extra information for KJLN:More info

Metar Taf Metar & Taf Last 4 Metars F.Rules Stats Wind Profile Meteogram Temp Stats Airport Information Weather charts Add Link Nearby VenuesMetar ALERT Operation Metar Decoded Social comments

AIRNAV info for KJLN